OKBK/KWI METAR and TAF weather

Enter ICAO airport designator
Station Type Date Time Source
OKBK METAR 2019/06/26 05:00 UTC NOAA

OKBK 260500Z 30005KT 7000 SKC 40/06 Q1003 NOSIG


Station Type Date Time Source
OKBK Decoded METAR 2019/06/26 05:00 UTC NOAA

Kuwait Internationalairport, Kuwait (OKBK) 29-13N 047-59E 55M
Jun 26, 2019 - 01:00 AM EDT / 2019.06.26 0500 UTC
Wind: from the WNW (300 degrees) at 6 MPH (5 KT):0
Visibility: 4 mile(s):0
Sky conditions: clear
Temperature: 104 F (40 C)
Dew Point: 42 F (6 C)
Relative Humidity: 12%
Pressure (altimeter): 29.62 in. Hg (1003 hPa)
ob: OKBK 260500Z 30005KT 7000 SKC 40/06 Q1003 NOSIG
cycle: 5

Station Type Date Time Source
OKBK TAF 2019/06/26 06:48 UTC NOAA

TAF TAF OKBK 260445Z 2606/2712 34015G25KT 7000 SKC
TEMPO 2606/2615 4000 BLDU

Example: see airport list